x

9449880 - Friday Harbor, Wa (frdw1) Weather Station

3:36 - Sun 25th Jan 2015 All times are PST. -8 hours from GMT.

  • Wind
    3mph, 5mph gusts
  • Sea Temp 48°f
  • Ar Temp 49°f
  • Sea Pressure 1022.8mb
  • 9449880 - Friday Harbor, Wa
  • 9449880 - Friday Harbor, Wa

More Historic Weather Station data

Upgrade to MSW Pro to gain access to the past 30 days of data for over 8000 Wavebouys and Weather Stations around the globe.

Join Pro

Comparision Forecast

View Surf forecast
   
Dom 01/25 3:36 3 5 mph 1022.8mb 48f 49f
3:30 3
mph
1022.9mb 48f 49f
3:24  -  1 mph 1022.9mb 48f 49f
3:18  -  1 mph 1023mb 48f 50f
3:12  -  2 mph 1022.9mb 48f 50f
3:06 1 2 mph 1022.8mb 48f 50f
3:00  -  2 mph 1022.6mb 48f 49f
2:36 3 5 mph 1022.5mb 48f 49f
2:30 2 3 mph 1022.7mb 48f 49f
2:24  -  1 mph 1022.8mb 48f 50f
2:18  -  2 mph 1022.8mb 48f 50f
2:12 1 3 mph 1022.7mb 48f 50f
2:06  -  1 mph 1022.9mb 48f 49f
2:00  -  1 mph 1022.9mb 48f 49f
1:36  -  1 mph 1022.9mb 48f 49f
1:30  -  2 mph 1022.7mb 48f 50f
1:24 1 2 mph 1022.7mb 48f 50f
1:18  -  1 mph 1022.7mb 48f 49f
1:12  -  1 mph 1022.5mb 48f 50f
1:06  -  1 mph 1022.5mb 48f 50f
1:00  -  1 mph 1022.5mb 48f 50f
12:36 1 2 mph 1022.8mb 48f 49f
12:30  -  2 mph 1022.9mb 48f 49f
12:24  -  2 mph 1023mb 48f 49f
12:18  -  3 mph 1022.9mb 48f 50f
12:12 2 3 mph 1022.6mb 48f 50f
12:06  -  2 mph 1022.7mb 48f 49f
12:00  -  2 mph 1022.9mb 48f 50f
Sáb 01/24 11:36 2 3 mph 1023.2mb 48f 50f
11:30  -  3 mph 1023mb 48f 50f
11:24 1 5 mph 1022.5mb 48f 50f
11:18 3 5 mph 1022.3mb 48f 50f
11:12 2 3 mph 1022.8mb 48f 49f
11:06 2 3 mph 1022.7mb 48f 49f
11:00 2 3 mph 1022.7mb 48f 49f
10:36 2 3 mph 1023.1mb 48f 50f
10:30  -  2 mph 1023mb 48f 50f
10:24 1 2 mph 1022.3mb 48f 50f
10:18 1 5 mph 1021.9mb 48f 50f
10:12 2 5 mph 1021.8mb 48f 51f
10:06 2 5 mph 1021.8mb 48f 50f
10:00 5
mph
1022.4mb 48f 51f
9:36 3
mph
1022.4mb 48f 51f
9:30 2 5 mph 1022.8mb 48f 51f
9:24 5 7 mph 1022.3mb 48f 51f
9:18 7
mph
1023.1mb 48f 51f
9:12 5 6 mph 1023mb 48f 51f
9:06  -  2 mph 1022.8mb 48f 51f
9:00  -  2 mph 1021.8mb 48f 51f
8:36 2 3 mph 1022.4mb 48f 51f
8:30 1 2 mph 1022.3mb 48f 51f
8:24 2 5 mph 1022.1mb 48f 51f
8:18 3 5 mph 1022.4mb 48f 51f
8:12 2 3 mph 1022.5mb 48f 51f
8:06 3
mph
1022.7mb 48f 52f
8:00  -  2 mph 1022.4mb 48f 52f
7:36 5 6 mph 1022mb 48f 52f
7:30 3 5 mph 1022mb 48f 52f
7:24 3 6 mph 1022.4mb 48f 52f
7:18 6 7 mph 1022.9mb 48f 52f
7:12 2 5 mph 1022.7mb 48f 53f
7:06  -  1 mph 1022.8mb 48f 53f
7:00  -  2 mph 1022.5mb 48f 53f
6:36 1 3 mph 1022.6mb 48f 52f
6:30  -  1 mph 1022.6mb 48f 53f
6:24  -  1 mph 1022.6mb 48f 53f
6:18 1 2 mph 1022.6mb 48f 53f
6:12 2 3 mph 1022.6mb 48f 53f
6:06  -  1 mph 1022.7mb 48f 53f
6:00 1 2 mph 1022.6mb 48f 53f
5:36 2 3 mph 1022.6mb 48f 52f
5:30 1 2 mph 1022.7mb 48f 52f
5:24 1 3 mph 1022.6mb 48f 52f
5:18 1 3 mph 1022.6mb 48f 51f
5:12  -  2 mph 1022.6mb 48f 51f
5:06  -  1 mph 1022.7mb 48f 52f
5:00 1 3 mph 1022.9mb 48f 52f
4:36 1 2 mph 1022.6mb 48f 52f
4:30 1 3 mph 1022.7mb 48f 53f
4:24 1 2 mph 1022.8mb 48f 52f
4:18  -  2 mph 1022.8mb 48f 52f
4:12 1 3 mph 1022.9mb 48f 53f
4:06 2 3 mph 1023mb 48f 53f
4:00 3
mph
1023mb 48f 53f
3:36 1 3 mph 1022.8mb 48f 53f
3:30 2
mph
1022.8mb 48f 53f
3:24 2
mph
1022.8mb 48f 54f
3:18 1 3 mph 1022.9mb 48f 53f
3:12 2 5 mph 1023.1mb 48f 54f
3:06 3 5 mph 1023mb 48f 53f
3:00 3 6 mph 1022.9mb 48f 53f
2:36 2 5 mph 1023.3mb 48f 53f
2:30 3 5 mph 1023.3mb 48f 53f
2:24 2 3 mph 1023.4mb 48f 53f
2:18 1 2 mph 1023.6mb 48f 54f
2:12 1 3 mph 1023.7mb 48f 54f
2:06 2 5 mph 1023.8mb 48f 54f
2:00 2 3 mph 1023.9mb 48f 54f
1:36 5 6 mph 1023.7mb 48f 53f
1:30 5 7 mph 1023.8mb 48f 53f
1:24 6 7 mph 1023.8mb 48f 53f
1:18 3 5 mph 1024mb 48f 53f
1:12 2 5 mph 1024.2mb 48f 53f
1:06 3 6 mph 1024.2mb 48f 53f
1:00 5 6 mph 1024.3mb 48f 53f
12:36 3 7 mph 1024.6mb 48f 53f
12:30 5 6 mph 1024.7mb 48f 53f
12:24 3 7 mph 1024.9mb 48f 53f
12:18 3 8 mph 1025.1mb 48f 53f
12:12 6 8 mph 1025.2mb 48f 53f
12:06 6 8 mph 1024.9mb 48f 53f
12:00 5 8 mph 1024.7mb 48f 53f
11:36 5 8 mph 1024.9mb 48f 52f
11:30 3 6 mph 1024.8mb 48f 52f
11:24 5 6 mph 1025mb 48f 52f
11:18 5 8 mph 1025mb 48f 52f
11:12 3 6 mph 1025.1mb 48f 53f
11:06 5 6 mph 1025.1mb 48f 53f
11:00 5 7 mph 1025.1mb 48f 53f
10:36 2 3 mph 1025mb 48f 52f
10:30 2 5 mph 1025mb 48f 52f
10:24 3 6 mph 1024.9mb 48f 52f
10:18 3 5 mph 1024.9mb 48f 52f
10:12 3 6 mph 1024.9mb 48f 52f
10:06 2 5 mph 1024.8mb 48f 51f
10:00 3 5 mph 1024.8mb 48f 51f
9:36 2 5 mph 1025mb 48f 52f
9:30 2 3 mph 1024.9mb 48f 52f
9:24 2 3 mph 1025mb 48f 52f
9:18 2 5 mph 1024.9mb 48f 52f
9:12 3 6 mph 1024.9mb 48f 52f
9:06  -  2 mph 1024.9mb 48f 52f
9:00 2 5 mph 1024.9mb 48f 52f
8:36  -  2 mph 1024.9mb 48f 51f
8:30 1 2 mph 1024.9mb 48f 51f
8:24 1 3 mph 1024.9mb 48f 51f
8:18  -  1 mph 1024.9mb 48f 51f
8:12  -  2 mph 1024.9mb 48f 51f
8:06  -  2 mph 1025mb 48f 51f
8:00 2 3 mph 1024.9mb 48f 50f
7:36 2 5 mph 1024.6mb 48f 50f
7:30 5 6 mph 1024.3mb 48f 50f
7:24 3 5 mph 1024.6mb 48f 51f
7:18 3 5 mph 1024.8mb 48f 51f
7:12 3
mph
1025mb 48f 51f
7:06 3 6 mph 1024.8mb 48f 51f
7:00 5 6 mph 1024.7mb 48f 51f
6:36 3 5 mph 1025.1mb 48f 51f
6:30 3 6 mph 1025mb 48f 51f
6:24 5 6 mph 1025.1mb 48f 51f
6:18 5 7 mph 1025.2mb 48f 51f
6:12 6 7 mph 1025.3mb 48f 51f
6:06 5 6 mph 1025.2mb 48f 51f
6:00 3 5 mph 1025.4mb 48f 51f
5:36 2 3 mph 1025.5mb 48f 51f
5:30  -  2 mph 1025.5mb 48f 51f
5:24 2
mph
1025.5mb 48f 51f
5:18 1 3 mph 1025.5mb 48f 51f
5:12 3 5 mph 1025.3mb 48f 50f
5:06 2 3 mph 1025.4mb 48f 50f
5:00 2 3 mph 1025.5mb 48f 51f
4:54 2 3 mph 1025.5mb 48f 51f
4:48  -  3 mph 1025.4mb 48f 51f
4:36 5 6 mph 1025.4mb 48f 51f
4:30 2 6 mph 1025.5mb 48f 51f
4:24 6 7 mph 1025.5mb 48f 51f
4:18 3 6 mph 1025.6mb 48f 51f
4:12 3 6 mph 1025.5mb 48f 51f
4:06 3 6 mph 1025.3mb 48f 51f
4:00 1 6 mph 1025.4mb 48f 51f
3:54 3 5 mph 1025.4mb 48f 51f
3:48 2 6 mph 1025.5mb 48f 51f
3:36 3 8 mph 1025.4mb 48f 51f
3:30 5 7 mph 1025.3mb 48f 51f
3:24 5 6 mph 1025.3mb 48f 51f
3:18 3 8 mph 1025.3mb 48f 51f
3:12 3 6 mph 1025.5mb 48f 51f
3:06 5 7 mph 1025.6mb 48f 51f
3:00 3 6 mph 1025.7mb 48f 51f
2:54 5 8 mph 1025.7mb 48f 51f
2:48 5 8 mph 1025.5mb 48f 51f
1:36 7 11 mph 1024.9mb 48f 50f
1:30 7 13 mph 1025mb 48f 50f
1:24 6 9 mph 1025.1mb 48f 50f
1:18 6 10 mph 1025mb 48f 50f
1:12 7 10 mph 1025mb 48f 50f
1:06 6 9 mph 1025.1mb 48f 50f
1:00 7 9 mph 1025.1mb 48f 50f
12:54 7 9 mph 1024.9mb 48f 50f
12:48 7 11 mph 1024.7mb 48f 50f
12:36 8 9 mph 1024.9mb 48f 50f
12:30 6 8 mph 1024.8mb 48f 50f
12:24 6 9 mph 1024.6mb 48f 50f
12:18 8 10 mph 1024.5mb 48f 51f
12:12 6 9 mph 1024.5mb 48f 51f
12:06 3 7 mph 1024.5mb 48f 51f
12:00 2 6 mph 1024.4mb 48f 51f
Sex 01/23 11:54 2 6 mph 1024.3mb 48f 51f
11:48 7 9 mph 1024.4mb 48f 51f
11:36 8 10 mph 1024.2mb 48f 51f
11:30 10 13 mph 1024.1mb 48f 51f
11:24 7 13 mph 1023.8mb 48f 52f
11:18 8 11 mph 1024mb 48f 51f
11:12 6 9 mph 1024.1mb 48f 51f
11:06 5 11 mph 1024.2mb 48f 51f
11:00 8 11 mph 1024.2mb 48f 51f
10:54 7 9 mph 1024.1mb 48f 51f
10:48 7 8 mph 1024mb 48f 51f
10:36 3 5 mph - 48f 51f
10:30 1 2 mph - 48f 51f
10:24  -  mph - 48f 51f
10:18  -  1 mph - 48f 51f
10:12 1 2 mph - 48f 51f
10:06  -  1 mph - 48f 51f
10:00  -  2 mph - 48f 51f
9:54 1 2 mph - 48f 51f
9:48  -  2 mph - 48f 51f
9:36 2 3 mph 1023.5mb 48f 51f
9:30  -  3 mph 1023.8mb 48f 52f
9:24 1 2 mph 1023.6mb 48f 51f
9:18  -  3 mph 1023.4mb 48f 51f
9:12  -  3 mph 1023.2mb 48f 51f
9:06 1 6 mph 1023.3mb 48f 52f
9:00 2 6 mph 1023.2mb 48f 52f
8:54 3 7 mph 1023.3mb 48f 52f
8:48  -  5 mph 1023.1mb 48f 51f
8:36 3 6 mph 1023.1mb 48f 52f
8:30 5 10 mph 1022.8mb 48f 52f
8:24 8 11 mph 1022.9mb 48f 51f
8:18 11 13 mph 1023.4mb 48f 52f
8:12 7 8 mph 1023.2mb 48f 52f
8:06 6 9 mph 1023.1mb 48f 53f
8:00 3 5 mph 1023.1mb 48f 53f
7:54 2 5 mph 1022.9mb 48f 53f
7:48 2 5 mph 1022.6mb 48f 53f
7:36 5 8 mph 1022.4mb 48f -
7:30 7 11 mph 1022.4mb 48f -
7:24 7 10 mph 1022.4mb 48f -
7:18 5 8 mph 1022.4mb 48f -
7:12 3 9 mph 1022.4mb 48f -
7:06 8 11 mph 1022.5mb 48f -
7:00 6 10 mph 1022.5mb 48f -
6:54 8 13 mph 1022.4mb 48f -
6:48 7 10 mph 1022.3mb 48f -
6:36 5 14 mph 1022.3mb 48f 52f
6:30 8 15 mph 1022.4mb 48f 52f
6:24 7 9 mph 1022.6mb 48f 52f
6:18 6 11 mph 1022.6mb 48f 52f
6:12 6 8 mph 1022.9mb 48f 52f
6:06 5 8 mph 1023mb 48f 52f
6:00 5 9 mph 1022.9mb 48f 52f
5:54 6 8 mph 1022.7mb 48f 52f
5:48 6 9 mph 1022.6mb 48f 52f
5:36 5 10 mph 1022.6mb 48f 52f
5:30 7 10 mph 1022.4mb 48f 52f
5:24 6 10 mph 1022.4mb 48f 52f
5:18 6 8 mph 1022.4mb 48f 51f
5:12 3 6 mph 1022.4mb 48f 52f
5:06 3 8 mph 1022.4mb 48f 52f
5:00 5 8 mph 1022.4mb 48f 52f
4:54 3 10 mph 1022.2mb 48f 52f
4:48 7 11 mph 1022.1mb 48f 51f
4:36 7 13 mph 1022.7mb 48f 51f
4:30 5 10 mph 1022.7mb 48f 51f
4:24 3 8 mph 1022.7mb 48f 51f
4:18 5 8 mph 1023mb 48f 51f
4:12 3 7 mph 1022.8mb 48f 51f
4:06 5 7 mph 1022.9mb 48f 51f
4:00 5 8 mph 1023.1mb 48f 51f
3:54 6 9 mph 1023mb 48f 51f
3:48 5 9 mph 1023mb 48f 51f
3:36 7 11 mph 1023.1mb 48f 51f
3:30 7 10 mph 1023.1mb 48f 51f
3:24 8 11 mph 1023.2mb 48f 51f
3:18 7 9 mph 1023.2mb 48f 50f
3:12 5 9 mph 1023.3mb 48f 50f
3:06 5 9 mph 1023.2mb 48f 50f
3:00 5 9 mph 1023.2mb 48f 50f
2:54 7 10 mph 1023.3mb 48f 50f
2:48 9 13 mph 1023.2mb 48f 50f
2:36 7 10 mph 1023.5mb 48f 50f
2:30 7 10 mph 1023.2mb 48f 50f
2:24 8 11 mph 1023.1mb 48f 50f
2:18 8 13 mph 1022.9mb 48f 50f
2:12 9 13 mph 1023.1mb 48f 50f
2:06 8 11 mph 1023.2mb 48f 50f
2:00 8 14 mph 1023.1mb 48f 50f
1:54 8 11 mph 1023.3mb 48f 50f
1:48 8 13 mph 1023.7mb 48f 50f
1:36 7 10 mph 1023.9mb 48f 50f
1:30 8 14 mph 1023.9mb 48f 50f
1:24 8 11 mph 1023.9mb 48f 50f
1:18 9 13 mph 1024mb 48f 50f
1:12 6 9 mph 1024.3mb 48f 50f
1:06 6 9 mph 1024.5mb 48f 51f
1:00 5 10 mph 1024.5mb 48f 51f
12:54 6 10 mph 1024.3mb 48f 51f
12:48 8 13 mph 1024.2mb 48f 51f
12:36 5 9 mph 1024.2mb 48f 51f
12:30 6 11 mph 1024.3mb 48f 51f
12:24 8 13 mph 1024.1mb 48f 51f
12:18 7 11 mph 1024.1mb 48f 51f
12:12 9 13 mph 1024.4mb 48f 51f
12:06 9 17 mph 1024.4mb 48f 51f
12:00 8 11 mph 1024.5mb 48f 51f
11:54 11 16 mph 1024.5mb 48f 51f
11:48 11 15 mph 1024.4mb 48f 51f
11:36 9 14 mph 1024.5mb 48f 51f
11:30 10 14 mph 1024.6mb 48f 51f
11:24 9 14 mph 1024.7mb 48f 51f
11:18 9 13 mph 1024.8mb 48f 51f
11:12 8 13 mph 1024.9mb 48f 51f
11:06 10 18 mph 1025mb 48f 51f
11:00 10 17 mph 1025mb 48f 51f
10:54 10 15 mph 1025mb 48f 51f
10:48 9 14 mph 1025mb 48f 51f
10:36 7 10 mph 1025.2mb 48f 51f
10:30 7 13 mph 1025.2mb 48f 51f
10:24 7 14 mph 1025.2mb 48f 51f
10:18 9 17 mph 1025.2mb 48f 51f
10:12 8 15 mph 1025.2mb 48f 51f
10:06 8 14 mph 1025.2mb 48f 51f
10:00 7 16 mph 1025.2mb 48f 51f
9:54 9 16 mph 1025.2mb 48f 51f
9:48 7 10 mph 1025.2mb 48f 50f
9:36 10 15 mph 1025.3mb 48f 50f
9:30 9 15 mph 1025.4mb 48f 50f
9:24 6 11 mph 1025.4mb 48f 50f
9:18 8 11 mph 1025.4mb 48f 50f
9:12 8 13 mph 1025.4mb 48f 50f
9:06 9 15 mph 1025.3mb 48f 50f
9:00 10 15 mph 1025.3mb 48f 50f
8:54 10 15 mph 1025.3mb 48f 50f
8:48 7 13 mph 1025.4mb 48f 49f
8:36 9 15 mph 1025.4mb 48f 49f
8:30 10 15 mph 1025.3mb 48f 50f
8:24 8 11 mph 1025.3mb 48f 49f
8:18 7 10 mph 1025.4mb 48f 49f
8:12 9 14 mph 1025.5mb 48f 50f
8:06 8 11 mph 1025.5mb 48f 50f
8:00 8 13 mph 1025.6mb 48f 50f
7:54 7 11 mph 1025.7mb 48f 49f
7:48 6 11 mph 1025.7mb 48f 49f
7:36 8 11 mph 1025.8mb 48f 50f
7:30 8 15 mph 1025.9mb 48f 50f
7:24 9 14 mph 1025.9mb 48f 50f
7:18 9 14 mph 1025.8mb 48f 50f
7:12 8 13 mph 1025.9mb 48f 50f
7:06 8 11 mph 1025.9mb 48f 50f
7:00 8 15 mph 1026mb 48f 51f
6:54 7 11 mph 1026.2mb 48f 51f
6:48 9 14 mph 1026.2mb 48f 51f
6:36 5 9 mph 1026.5mb 48f 51f
6:30 1 5 mph 1026.6mb 48f 51f
6:24 3 8 mph 1026.6mb 48f 51f
6:18 3 9 mph 1026.5mb 48f 51f
6:12 5 8 mph 1026.5mb 48f 50f
6:06 6 8 mph 1026.5mb 48f 50f
6:00 6 8 mph 1026.5mb 48f 50f
5:54 7 10 mph 1026.5mb 48f 50f
5:48 8 11 mph 1026.5mb 48f 50f
5:36 9 11 mph 1026.6mb 48f 50f
5:30 9 11 mph 1026.7mb 48f 50f
5:24 9 11 mph 1026.8mb 48f 50f
5:18 8 10 mph 1027mb 48f 50f
5:12 6 9 mph 1027.1mb 48f 50f
5:06 8 10 mph 1027mb 48f 51f
5:00 9 11 mph 1027mb 48f 50f
4:54 9 11 mph 1027.1mb 48f 50f
4:48 7 9 mph 1027.1mb 48f 50f
4:36 6 9 mph 1027mb 48f 49f
4:30 6 9 mph 1027.1mb 48f 50f
4:24 6 8 mph 1027.2mb 48f 50f
4:18 7 9 mph 1027.4mb 48f 50f
4:12 7 9 mph 1027.3mb 48f 50f
4:06 9 10 mph 1027.3mb 48f 50f
4:00 7 9 mph 1027.6mb 48f 50f
3:54 7 9 mph 1027.7mb 48f 50f
3:48 7 10 mph 1027.8mb 48f 50f
3:36 7 9 mph 1027.7mb 48f 50f
3:30 6 8 mph 1027.7mb 48f 50f
3:24 5 8 mph 1027.7mb 48f 50f
3:18 7 9 mph 1027.3mb 48f 49f
3:12 6 8 mph 1027.4mb 48f 49f
3:06 6 8 mph 1027.6mb 48f 49f
3:00 6 10 mph 1027.7mb 48f 49f
2:54 6 10 mph 1027.4mb 48f 49f
2:48 6 9 mph 1027.4mb 48f 49f
2:36 6 7 mph 1027mb 48f 49f
2:30 6 7 mph 1027.1mb 48f 49f
2:24 6 8 mph 1027.4mb 48f 49f
2:18 7 9 mph 1027.4mb 48f 49f
2:12 7 8 mph 1027.6mb 48f 49f
2:06 6 7 mph 1027.7mb 48f 49f
2:00 6 8 mph 1028.1mb 48f 49f
1:54 6 8 mph 1028.2mb 48f 49f
1:48 7 9 mph 1028mb 48f 49f
1:36 8 9 mph 1027.9mb 48f 48f
1:30 7 8 mph 1027.9mb 48f 48f
1:24 7 8 mph 1027.9mb 48f 48f
1:18 7 8 mph 1028mb 48f 48f
1:12 6 7 mph 1028.1mb 48f 48f
1:06 6 7 mph 1028.2mb 48f 48f
1:00 6 7 mph 1028.2mb 48f 48f
12:54 5 6 mph 1028.2mb 48f 48f
12:48 6
mph
1028.2mb 48f 49f
12:36 2 3 mph 1028.3mb 48f 49f
12:30  -  3 mph 1028.4mb 48f 49f
12:24 1 3 mph 1028.3mb 48f 49f
12:18 2 3 mph 1028.3mb 48f 49f
12:12 2 3 mph 1028.4mb 48f 49f
12:06 2 3 mph 1028.4mb 48f 49f
12:00  -  3 mph 1028.5mb 48f 49f
Qui 01/22 11:54 3 5 mph 1028.2mb 48f 49f
11:48 5 7 mph 1028.1mb 48f 49f
11:36 5 6 mph 1027.9mb 48f 49f
11:30 3 5 mph 1027.9mb 48f 49f
11:24 3 6 mph 1027.9mb 48f 49f
11:18 7 9 mph 1027.7mb 48f 49f
11:12 3 7 mph 1027.6mb 48f 49f
11:06 5 7 mph 1027.7mb 48f 49f
11:00 3 6 mph 1027.7mb 48f 49f
10:54 6 10 mph 1027.6mb 48f 49f
10:48 7 9 mph 1027.5mb 48f 49f
10:36 8 10 mph 1027.3mb 48f 49f
10:30 8 10 mph 1027.4mb 48f 49f
10:24 6 9 mph 1027.5mb 48f 49f
10:18 6 7 mph 1027.5mb 48f 49f
10:12 5 7 mph 1027.4mb 48f 49f
10:06 6 8 mph 1027.4mb 48f 49f
10:00 7 9 mph 1027.4mb 48f 49f
9:54 3 5 mph 1027.5mb 48f 48f
9:48 3 7 mph 1027.6mb 48f 48f
9:36 6 8 mph 1027.3mb 48f 48f
9:30 5 6 mph 1027.4mb 48f 48f
9:24 5 6 mph 1027.4mb 48f 48f
9:18 3 6 mph 1027.6mb 48f 48f
9:12 5 6 mph 1027.5mb 48f 48f
9:06 5 6 mph 1027.6mb 48f 48f
9:00 5 6 mph 1027.8mb 48f 48f
8:54 3 6 mph 1027.6mb 48f 48f
8:48 3 5 mph 1027.5mb 48f 48f
8:36 6 7 mph 1027.1mb 48f 48f
8:30 5 7 mph 1027.1mb 48f 48f
8:24 3 6 mph 1027.2mb 48f 48f
8:18 3 5 mph 1027.1mb 48f 48f
8:12 3 6 mph 1027mb 48f 48f
8:06 6
mph
1026.8mb 48f 48f
8:00 5 7 mph 1027mb 48f 48f
7:54 5 6 mph 1027.3mb 48f 48f
7:48 1 3 mph 1027.5mb 48f 48f
7:36 3 5 mph 1027.3mb 48f 48f
7:30 3 6 mph 1027.1mb 48f 47f
7:24 3 6 mph 1027.2mb 48f 48f
7:18 6 8 mph 1027.2mb 48f 47f
7:12 3 5 mph 1027.2mb 48f 47f
7:06 3 5 mph 1027.2mb 48f 47f
7:00 5 6 mph 1027mb 48f 47f
6:54 6 7 mph 1026.9mb 48f 48f
6:48 3 5 mph 1026.9mb 48f 48f
6:36 6 9 mph 1026.9mb 48f 48f
6:30 5 6 mph 1027mb 48f 48f
6:24 6 8 mph 1027mb 48f 48f
6:18 5 7 mph 1026.9mb 48f 47f
6:12 5 7 mph 1026.8mb 48f 47f
6:06 6 9 mph 1026.7mb 48f 47f
6:00 7 11 mph 1026.6mb 48f 47f
5:54 7 10 mph 1026.6mb 48f 47f
5:48 7 9 mph 1026.7mb 48f 47f
5:36 6
mph
1026.9mb - 47f
5:30 5 6 mph 1027.2mb - 47f
5:24 2 5 mph 1027.3mb - 47f
5:18 3 7 mph 1027.4mb - 47f
5:12 5 7 mph 1027.4mb - 47f
5:06 3 6 mph 1027.5mb - 47f
5:00 3 5 mph 1027.6mb - 47f
4:54 3 6 mph 1027.5mb - 47f
4:48 3 6 mph 1027.6mb - 47f
4:36 3 6 mph 1027.5mb 48f 47f
4:30 3 5 mph 1027.6mb 48f 46f
4:24 3 6 mph 1027.5mb 48f 46f
4:18 2 5 mph 1027.4mb 48f 47f
4:12 5 7 mph 1027.5mb 48f 47f
4:06 5 6 mph 1027.4mb 48f 47f
4:00 3 5 mph 1027.4mb 48f 47f
3:54 3 5 mph 1027.5mb 48f 47f
3:48 2 6 mph 1027.5mb 48f 47f
3:36 5 6 mph 1027.4mb 48f 47f
3:30 6
mph
1027.4mb 48f 47f
3:24 6 7 mph 1027.3mb 48f 47f
3:18 6
mph
1027.5mb 48f 47f
3:12 5 6 mph 1027.6mb 48f 47f
3:06 5 6 mph 1027.6mb 48f 47f
3:00 3 6 mph 1027.6mb 48f 47f
2:54 5 6 mph 1027.6mb 48f 47f
2:48 6 7 mph 1027.4mb 48f 47f
2:36 3 5 mph 1027.6mb 48f 47f
2:30 5
mph
1027.4mb 48f 47f
2:24 3 6 mph 1027.4mb 48f 47f
2:18 3 5 mph 1027.5mb 48f 47f
2:12 2 3 mph 1027.5mb 48f 46f
2:06 2 5 mph 1027.4mb 48f 46f
2:00 3 5 mph 1027.3mb 48f 46f
1:54 5
mph
1027.1mb 48f 46f
1:48 5
mph
1027.1mb 48f 46f
1:36 2
mph
1027.1mb 48f 46f
1:30 2 3 mph 1027mb 48f 46f
1:24 2 5 mph 1026.9mb 48f 46f
1:18 6 7 mph 1026.7mb 48f 46f
1:12 7 8 mph 1026.5mb 48f 46f
1:06 6
mph
1026.7mb 48f 46f
1:00 3 5 mph 1027mb 48f 46f
12:54 3 5 mph 1027.1mb 48f 45f
12:48 5 6 mph 1027.1mb 48f 45f
12:36 3 5 mph 1027.3mb 48f 46f
12:30 3 5 mph 1027.5mb 48f 46f
12:24  -  2 mph 1027.5mb 48f 46f
12:18 2
mph
1027.5mb 48f 46f
12:12 2 3 mph 1027.2mb 48f 46f
12:06 3 5 mph 1027.2mb 48f 46f
12:00 5 6 mph 1027.1mb 48f 46f
11:54 6 7 mph 1027.2mb 48f 45f
11:48 6 8 mph 1027.2mb 48f 45f
11:36 5 7 mph 1027mb 48f 45f
11:30 3 5 mph 1027.2mb 48f 45f
11:24 5 6 mph 1027.3mb 48f 45f
11:18 3 5 mph 1027.3mb 48f 45f
11:12 3 6 mph 1027.4mb 48f 45f
11:06 1 2 mph 1027.4mb 48f 45f
11:00 3 6 mph 1027.4mb 48f 45f
10:54 2 5 mph 1027.4mb 48f 45f
10:48 2 5 mph 1027.3mb 48f 45f
10:36 2 6 mph 1027.1mb 48f 45f
10:30 3 5 mph 1027mb 48f 46f
10:24 5 6 mph 1026.8mb 48f 46f
10:18 5 6 mph 1026.7mb 48f 46f
10:12 5 7 mph 1026.7mb 48f 45f
10:06 6
mph
1026.6mb 48f 45f
10:00 5 9 mph 1026.5mb 48f 45f
9:54 6 8 mph 1026.4mb 48f 45f
9:48 6
mph
1026.4mb 48f 45f
9:36 5 7 mph 1026.3mb 48f 45f
9:30 5 7 mph 1026.2mb 48f 45f
9:24 2 3 mph 1026.2mb 48f 45f
9:18 3 6 mph 1026.2mb 48f 44f
9:12 3 5 mph 1026.1mb 48f 44f
9:06 5 8 mph 1025.9mb 48f 44f
9:00 5 6 mph 1025.8mb 48f 44f
8:54 3 6 mph 1025.7mb 48f 44f
8:48 5 7 mph 1025.6mb 48f 44f
8:36 6 8 mph 1025.5mb 48f 44f
8:30 6 8 mph 1025.5mb 48f 44f
8:24 5 6 mph 1025.5mb 48f 44f
8:18 5 6 mph 1025.5mb 48f 44f
8:12 5 6 mph 1025.4mb 48f 44f
8:06 6 7 mph 1025.2mb 48f 44f
8:00 6 8 mph 1025.1mb 48f 44f
7:54 6 7 mph 1025.1mb 48f 44f
7:48 6
mph
1025.1mb 48f 44f
7:36 6 9 mph 1025.1mb 48f 44f
7:30 8 10 mph 1024.9mb 48f 44f
7:24 8 10 mph 1024.7mb 48f 44f
7:18 7 8 mph 1024.7mb 48f 44f
7:12 6 7 mph 1024.7mb 48f 44f
7:06 5 6 mph 1024.7mb 48f 44f
7:00 5 7 mph 1024.9mb 48f 44f
6:54 5 6 mph 1025.1mb 48f 44f
6:48 5 6 mph 1025.1mb 48f 44f
6:36 7 8 mph 1024.8mb 48f 44f
6:30 8 9 mph 1024.8mb 48f 44f
6:24 7 9 mph 1024.7mb 48f 44f
6:18 6 8 mph 1024.8mb 48f 43f
6:12 7 8 mph 1024.8mb 48f 43f
6:06 6 7 mph 1024.9mb 48f 43f
6:00 5 6 mph 1024.9mb 48f 43f
5:54 6 8 mph 1024.9mb 48f 43f
5:48 6 8 mph 1025mb 48f 43f
5:36 7 8 mph 1025.1mb 48f 43f
5:30 5 8 mph 1025.1mb 48f 42f
5:24 5 6 mph 1025.1mb 48f 43f
5:18 3 5 mph 1025.2mb 48f 42f
5:12 2 5 mph 1025.2mb 48f 42f
5:06 2 3 mph 1025.3mb 48f 42f
5:00  -  2 mph 1025.2mb 48f 42f
4:54 2 5 mph 1025.3mb 48f 42f
4:48 3 5 mph 1025.2mb 48f 42f
4:36 2 5 mph 1025.3mb 48f 42f
4:30 2 3 mph 1025.3mb 48f 42f
4:24 2 6 mph 1025.3mb 48f 42f
4:18 2 6 mph 1025.3mb 48f 42f
4:12 2 5 mph 1025.4mb 48f 42f
4:06 2 3 mph 1025.4mb 48f 42f
4:00 3 6 mph 1025.3mb 48f 42f
3:54 2 3 mph 1025.2mb 48f 42f
3:48 2 6 mph 1025.2mb 48f 42f
3:36 2 3 mph 1025.2mb 48f 43f
3:30 2 6 mph 1025.1mb 48f 43f
3:24 6 7 mph 1025mb 48f 43f
3:18 6 7 mph 1025mb 48f 43f
3:12 5 6 mph 1025.2mb 48f 43f
3:06 2 3 mph 1025.2mb 48f 42f
3:00 2 5 mph 1025.2mb 48f 42f
2:54 2 3 mph 1025.2mb 48f 42f
2:48  -  2 mph 1025.3mb 48f 42f
2:36  -  5 mph 1025.3mb 48f 42f
2:30 3 5 mph 1025.2mb 48f 42f
2:24 3 5 mph 1025.1mb 48f 42f
2:18 3 6 mph 1025.1mb 48f 42f
2:12 2 5 mph 1025mb 48f 42f
2:06 2 3 mph 1025mb 48f 42f
2:00 1 3 mph 1025mb 48f 42f
1:54 2 5 mph 1024.9mb 48f 42f
1:48 1 3 mph 1024.9mb 48f 42f
1:36  -  2 mph 1025mb 48f 42f
1:30 1 3 mph 1025.1mb 48f 42f
1:24  -  1 mph 1025.1mb 48f 42f
1:18  -  1 mph 1025.1mb 48f 42f
1:12  -  1 mph 1025mb 48f 42f
1:06  -  2 mph 1025.1mb 48f 42f
1:00 1 2 mph 1025mb 48f 42f
12:54 1 2 mph 1025mb 48f 42f
12:48  -  mph 1025.2mb 48f 42f
12:36  -  1 mph 1025.3mb 48f 42f
12:30  -  mph 1025.3mb 48f 42f
12:24  -  1 mph 1025.3mb 48f 42f
12:18  -  1 mph 1025.3mb 48f 42f
12:12  -  1 mph 1025.2mb 48f 42f
12:06  -  mph 1025.2mb 48f 42f
12:00  -  1 mph 1025.2mb 48f 42f
Qua 01/21 11:54  -  1 mph 1025.2mb 48f 42f
11:48  -  2 mph 1025.2mb 48f 42f
11:36 1 2 mph 1025.2mb 48f 42f
11:30 1 2 mph 1025.2mb 48f 42f
11:24  -  1 mph 1025.2mb 48f 42f
11:18  -  1 mph 1025.1mb 48f 42f
11:12  -  2 mph 1024.9mb 48f 43f
11:06 2 3 mph 1024.7mb 48f 43f
11:00 1
mph
1024.6mb 48f 43f
10:54  -  1 mph 1024.6mb 48f 43f
10:48  -  1 mph 1024.6mb 48f 43f
10:36  -  mph 1024.5mb 48f 43f
10:30  -  1 mph 1024.5mb 48f 43f
10:24  -  1 mph 1024.5mb 48f 43f
10:18  -  2 mph 1024.5mb 48f 43f
10:12 1 2 mph 1024.5mb 48f 43f
10:06 1
mph
1024.4mb 48f 43f
10:00 1
mph
1024.4mb 48f 43f
9:54  -  1 mph 1024.4mb 48f 42f
9:48  -  1 mph 1024.3mb 48f 42f
9:36  -  1 mph 1024.5mb 48f 42f
9:30  -  1 mph 1024.5mb 48f 42f
9:24  -  1 mph 1024.6mb 48f 42f
9:18  -  1 mph 1024.6mb 48f 42f
9:12  -  1 mph 1024.5mb 48f 42f
9:06  -  1 mph 1024.3mb 48f 42f
9:00  -  mph 1024.3mb 48f 42f
8:54  -  2 mph 1024.3mb 48f 42f
8:48 1 2 mph 1024.4mb 48f 42f
8:36  -  1 mph 1024.2mb 48f 42f
8:30  -  1 mph 1024.3mb 48f 42f
8:24  -  1 mph 1024.2mb 48f 42f
8:18 1
mph
1024.2mb 48f 43f
8:12  -  mph 1024.3mb 48f 43f
8:06  -  mph 1024.2mb 48f 43f
8:00  -  1 mph 1024.2mb 48f 43f
7:54  -  1 mph 1024.2mb 48f 42f
7:48  -  1 mph 1024.2mb 48f 42f
7:36  -  1 mph 1024.1mb 48f 43f
7:30  -  1 mph 1024.1mb 48f 43f
7:24  -  1 mph 1024.1mb 48f 43f
7:18  -  3 mph 1024.1mb 48f 43f
7:12 2 3 mph 1024mb 48f 43f
7:06 1 2 mph 1024.1mb 48f 43f
7:00  -  1 mph 1024mb 48f 43f
6:54  -  2 mph 1024mb 48f 43f
6:48  -  1 mph 1024mb 48f 43f
6:36  -  5 mph 1024.1mb 48f 43f
6:30 2 5 mph 1023.9mb 48f 43f
6:24 1 2 mph 1024.1mb 48f 43f
6:18  -  1 mph 1024.2mb 48f 43f
6:12  -  2 mph 1024.2mb 48f 43f
6:06  -  2 mph 1024.1mb 48f 43f
6:00  -  2 mph 1024.2mb 48f 43f
5:54  -  1 mph 1024.1mb 48f 43f
5:48  -  1 mph 1024.1mb 48f 42f
5:36 1 3 mph 1024.1mb 48f 43f
5:30 2 3 mph 1024.1mb 48f 43f
5:24  -  1 mph 1024.1mb 48f 43f
5:18 1 3 mph 1024.1mb 48f 43f
5:12  -  1 mph 1024.2mb 48f 43f
5:06  -  3 mph 1024.2mb 48f 43f
5:00 1 3 mph 1024.2mb 48f 43f
4:54  -  2 mph 1024.3mb 48f 43f
4:48  -  1 mph 1024.4mb 48f 43f
4:36 1 3 mph 1024.6mb 48f 43f
4:30  -  2 mph 1024.6mb 48f 43f
4:24  -  2 mph 1024.6mb 48f 43f
4:18  -  3 mph 1024.6mb 48f 44f
4:12  -  2 mph 1024.6mb 48f 44f
4:06  -  2 mph 1024.6mb 48f 44f
4:00  -  1 mph 1024.6mb 48f 44f
3:54  -  1 mph 1024.7mb 48f 44f
3:48  -  3 mph 1024.7mb 48f 44f
3:36 2 3 mph 1024.7mb 48f 44f
3:30 2
mph
1024.7mb 48f 44f
3:24  -  1 mph 1024.7mb 48f 44f
3:18  -  1 mph 1024.7mb 48f 44f
3:12  -  2 mph 1024.7mb 48f 44f
3:06  -  2 mph 1024.6mb 48f 44f
3:00 2 3 mph 1024.6mb 48f 44f
2:54 3
mph
1024.7mb 48f 44f
2:48 1 2 mph 1024.6mb 48f 43f
2:36  -  1 mph 1024.6mb 48f 43f
2:30  -  2 mph 1024.6mb 48f 43f
2:24 1 2 mph 1024.5mb 48f 43f
2:18 1 2 mph 1024.5mb 48f 43f
2:12 1
mph
1024.7mb 48f 43f
2:06  -  1 mph 1024.8mb 48f 43f
2:00 1 2 mph 1024.9mb 48f 43f
1:54 1 2 mph 1024.9mb 48f 43f
1:48  -  2 mph 1025mb 48f 43f
1:36 1 2 mph 1025.1mb 48f 43f
1:30 2 3 mph 1025.2mb 48f 43f
1:24 1 2 mph 1025.2mb 48f 43f
1:18 2 3 mph 1025.3mb 48f 43f
1:12 2 3 mph 1025.4mb 48f 43f
1:06 1 3 mph 1025.5mb 48f 43f